Time,TemperatureF,DewpointF,PressureIn,WindDirection,WindDirectionDegrees,WindSpeedMPH,WindSpeedGustMPH,Humidity,HourlyPrecipIn,Conditions,Clouds,dailyrainin,SoftwareType,DateUTC
2014-01-02 00:00:00,30.0,20.0,-100.00,NE,40,13.0,18.0,66,-99.99,,,-99.99,,2014-01-02 05:00:00,
2014-01-02 00:12:00,30.0,19.0,-100.00,NNE,30,11.0,16.0,62,-99.99,,,-99.99,,2014-01-02 05:12:00,
2014-01-02 00:53:00,30.0,20.0,-100.00,NE,40,13.0,18.0,66,-99.99,,,-99.99,,2014-01-02 05:53:00,
2014-01-02 01:30:00,28.0,22.0,-100.00,NE,50,16.0,20.0,75,-99.99,,,-99.99,,2014-01-02 06:30:00,
2014-01-02 02:22:00,28.0,22.0,-100.00,NE,50,16.0,20.0,75,-99.99,,,-99.99,,2014-01-02 07:22:00,
2014-01-02 03:30:00,27.0,25.0,-100.00,ENE,60,18.0,25.0,88,-99.99,,,-99.99,,2014-01-02 08:30:00,
2014-01-02 03:42:00,27.0,24.0,-100.00,ENE,60,18.0,22.0,86,-99.99,,,-99.99,,2014-01-02 08:42:00,
2014-01-02 04:21:00,27.0,25.0,-100.00,ENE,60,18.0,25.0,88,-99.99,,,-99.99,,2014-01-02 09:21:00,
2014-01-02 04:30:00,27.0,24.0,-100.00,ENE,60,20.0,25.0,88,-99.99,,,-99.99,,2014-01-02 09:30:00,
2014-01-02 05:23:00,27.0,24.0,-100.00,ENE,60,20.0,25.0,88,-99.99,,,-99.99,,2014-01-02 10:23:00,
2014-01-02 06:42:00,28.0,25.0,-100.00,ENE,60,22.0,29.0,88,-99.99,,,-99.99,,2014-01-02 11:42:00,
2014-01-02 07:42:00,27.0,25.0,-100.00,ENE,60,22.0,29.0,90,-99.99,,,-99.99,,2014-01-02 12:42:00,
2014-01-02 09:42:00,28.0,25.0,-100.00,ENE,60,22.0,29.0,90,-99.99,,,-99.99,,2014-01-02 14:42:00,
2014-01-02 11:12:00,28.0,25.0,-100.00,NE,50,22.0,27.0,88,-99.99,,,-99.99,,2014-01-02 16:12:00,
2014-01-02 11:30:00,29.0,26.0,-100.00,NE,50,22.0,29.0,87,-99.99,,,-99.99,,2014-01-02 16:30:00,
2014-01-02 11:42:00,29.0,26.0,-100.00,NE,50,22.0,29.0,88,-99.99,,,-99.99,,2014-01-02 16:42:00,
2014-01-02 12:21:00,29.0,26.0,-100.00,NE,50,22.0,29.0,87,-99.99,,,-99.99,,2014-01-02 17:21:00,
2014-01-02 16:11:00,31.0,28.0,-100.00,NE,50,22.0,34.0,88,-99.99,,,-99.99,,2014-01-02 21:11:00,
2014-01-02 16:43:00,31.0,29.0,-100.00,NE,50,22.0,31.0,89,-99.99,,,-99.99,,2014-01-02 21:43:00,
2014-01-02 17:23:00,32.0,29.0,-100.00,ENE,60,25.0,34.0,88,-99.99,,,-99.99,,2014-01-02 22:23:00,
2014-01-02 18:11:00,31.0,28.0,-100.00,NE,50,22.0,31.0,89,-99.99,,,-99.99,,2014-01-02 23:11:00,
2014-01-02 18:42:00,30.0,27.0,-100.00,NE,50,22.0,31.0,91,-99.99,,,-99.99,,2014-01-02 23:42:00,
2014-01-02 19:42:00,27.0,26.0,-100.00,NE,50,22.0,31.0,93,-99.99,,,-99.99,,2014-01-03 00:42:00,
2014-01-02 21:42:00,25.0,24.0,-100.00,NE,50,22.0,29.0,93,-99.99,,,-99.99,,2014-01-03 02:42:00,
2014-01-02 22:42:00,22.0,21.0,-100.00,NE,40,22.0,29.0,94,-99.99,,,-99.99,,2014-01-03 03:42:00,
2014-01-02 23:30:00,18.0,16.0,-100.00,NNE,20,25.0,31.0,91,-99.99,,,-99.99,,2014-01-03 04:30:00,